sensor_id;sensor_type;location;lat;lon;timestamp;P1;durP1;ratioP1;P2;durP2;ratioP2
7531;SDS011;3807;49.030;8.714;2022-08-14T00:02:24;2.53;;;1.70;;
7531;SDS011;3807;49.030;8.714;2022-08-14T00:04:50;3.90;;;1.60;;
7531;SDS011;3807;49.030;8.714;2022-08-14T00:07:15;1.85;;;1.75;;
7531;SDS011;3807;49.030;8.714;2022-08-14T00:09:41;2.45;;;1.80;;
7531;SDS011;3807;49.030;8.714;2022-08-14T00:12:07;3.90;;;1.70;;
7531;SDS011;3807;49.030;8.714;2022-08-14T00:14:33;2.08;;;1.80;;
7531;SDS011;3807;49.030;8.714;2022-08-14T00:16:58;4.30;;;1.90;;
7531;SDS011;3807;49.030;8.714;2022-08-14T00:19:24;2.35;;;1.80;;
7531;SDS011;3807;49.030;8.714;2022-08-14T00:21:50;3.58;;;1.92;;
7531;SDS011;3807;49.030;8.714;2022-08-14T00:24:16;2.62;;;1.90;;
7531;SDS011;3807;49.030;8.714;2022-08-14T00:26:42;2.35;;;1.55;;
7531;SDS011;3807;49.030;8.714;2022-08-14T00:29:08;2.30;;;1.80;;
7531;SDS011;3807;49.030;8.714;2022-08-14T00:31:33;3.08;;;1.80;;
7531;SDS011;3807;49.030;8.714;2022-08-14T00:33:58;5.30;;;1.92;;
7531;SDS011;3807;49.030;8.714;2022-08-14T00:36:24;1.92;;;1.80;;
7531;SDS011;3807;49.030;8.714;2022-08-14T00:38:49;2.22;;;1.80;;
7531;SDS011;3807;49.030;8.714;2022-08-14T00:41:15;2.85;;;1.77;;
7531;SDS011;3807;49.030;8.714;2022-08-14T00:43:40;2.05;;;1.85;;
7531;SDS011;3807;49.030;8.714;2022-08-14T00:46:07;5.12;;;1.80;;
7531;SDS011;3807;49.030;8.714;2022-08-14T00:48:34;2.15;;;1.90;;
7531;SDS011;3807;49.030;8.714;2022-08-14T00:51:01;3.85;;;1.77;;
7531;SDS011;3807;49.030;8.714;2022-08-14T00:53:26;2.03;;;1.83;;
7531;SDS011;3807;49.030;8.714;2022-08-14T00:55:52;4.32;;;1.62;;
7531;SDS011;3807;49.030;8.714;2022-08-14T00:58:20;5.18;;;1.80;;
7531;SDS011;3807;49.030;8.714;2022-08-14T01:01:08;2.42;;;2.15;;
7531;SDS011;3807;49.030;8.714;2022-08-14T01:03:36;2.87;;;2.08;;
7531;SDS011;3807;49.030;8.714;2022-08-14T01:06:04;2.45;;;2.08;;
7531;SDS011;3807;49.030;8.714;2022-08-14T01:08:32;5.53;;;1.70;;
7531;SDS011;3807;49.030;8.714;2022-08-14T01:10:59;2.08;;;1.87;;
7531;SDS011;3807;49.030;8.714;2022-08-14T01:13:29;2.37;;;1.98;;
7531;SDS011;3807;49.030;8.714;2022-08-14T01:15:58;4.25;;;2.05;;
7531;SDS011;3807;49.030;8.714;2022-08-14T01:18:26;3.15;;;1.60;;
7531;SDS011;3807;49.030;8.714;2022-08-14T01:21:11;1.90;;;1.70;;
7531;SDS011;3807;49.030;8.714;2022-08-14T01:23:41;2.62;;;2.17;;
7531;SDS011;3807;49.030;8.714;2022-08-14T01:26:09;2.85;;;1.90;;
7531;SDS011;3807;49.030;8.714;2022-08-14T01:28:36;2.40;;;2.20;;
7531;SDS011;3807;49.030;8.714;2022-08-14T01:31:06;2.30;;;2.00;;
7531;SDS011;3807;49.030;8.714;2022-08-14T01:33:38;3.97;;;2.10;;
7531;SDS011;3807;49.030;8.714;2022-08-14T01:36:08;2.33;;;1.80;;
7531;SDS011;3807;49.030;8.714;2022-08-14T01:38:35;2.75;;;1.80;;
7531;SDS011;3807;49.030;8.714;2022-08-14T01:41:05;4.62;;;1.80;;
7531;SDS011;3807;49.030;8.714;2022-08-14T01:43:46;3.95;;;2.28;;
7531;SDS011;3807;49.030;8.714;2022-08-14T01:46:25;2.00;;;1.80;;
7531;SDS011;3807;49.030;8.714;2022-08-14T01:48:51;3.58;;;2.10;;
7531;SDS011;3807;49.030;8.714;2022-08-14T01:51:18;3.80;;;2.08;;
7531;SDS011;3807;49.030;8.714;2022-08-14T01:53:51;4.97;;;1.90;;
7531;SDS011;3807;49.030;8.714;2022-08-14T01:56:18;2.58;;;2.05;;
7531;SDS011;3807;49.030;8.714;2022-08-14T01:58:45;4.35;;;2.00;;
7531;SDS011;3807;49.030;8.714;2022-08-14T02:01:17;2.37;;;1.87;;
7531;SDS011;3807;49.030;8.714;2022-08-14T02:03:44;4.87;;;2.15;;
7531;SDS011;3807;49.030;8.714;2022-08-14T02:06:11;4.03;;;2.22;;
7531;SDS011;3807;49.030;8.714;2022-08-14T02:08:38;3.05;;;2.10;;
7531;SDS011;3807;49.030;8.714;2022-08-14T02:11:05;6.28;;;1.90;;
7531;SDS011;3807;49.030;8.714;2022-08-14T02:13:56;2.67;;;2.20;;
7531;SDS011;3807;49.030;8.714;2022-08-14T02:16:26;5.68;;;2.08;;
7531;SDS011;3807;49.030;8.714;2022-08-14T02:18:54;2.80;;;1.85;;
7531;SDS011;3807;49.030;8.714;2022-08-14T02:21:22;2.97;;;2.00;;
7531;SDS011;3807;49.030;8.714;2022-08-14T02:23:49;2.28;;;1.80;;
7531;SDS011;3807;49.030;8.714;2022-08-14T02:26:23;2.58;;;2.30;;
7531;SDS011;3807;49.030;8.714;2022-08-14T02:28:53;4.00;;;1.95;;
7531;SDS011;3807;49.030;8.714;2022-08-14T02:31:23;3.75;;;2.10;;
7531;SDS011;3807;49.030;8.714;2022-08-14T02:33:53;2.30;;;2.05;;
7531;SDS011;3807;49.030;8.714;2022-08-14T02:36:18;3.25;;;2.22;;
7531;SDS011;3807;49.030;8.714;2022-08-14T02:38:44;3.33;;;2.12;;
7531;SDS011;3807;49.030;8.714;2022-08-14T02:41:10;2.78;;;2.45;;
7531;SDS011;3807;49.030;8.714;2022-08-14T02:43:37;2.92;;;2.22;;
7531;SDS011;3807;49.030;8.714;2022-08-14T02:46:05;2.15;;;1.90;;
7531;SDS011;3807;49.030;8.714;2022-08-14T02:48:33;2.67;;;2.40;;
7531;SDS011;3807;49.030;8.714;2022-08-14T02:51:18;3.42;;;2.10;;
7531;SDS011;3807;49.030;8.714;2022-08-14T02:53:44;2.30;;;2.10;;
7531;SDS011;3807;49.030;8.714;2022-08-14T02:56:12;2.33;;;2.12;;
7531;SDS011;3807;49.030;8.714;2022-08-14T02:58:39;6.60;;;2.47;;
7531;SDS011;3807;49.030;8.714;2022-08-14T03:01:07;2.83;;;2.37;;
7531;SDS011;3807;49.030;8.714;2022-08-14T03:03:34;3.50;;;2.30;;
7531;SDS011;3807;49.030;8.714;2022-08-14T03:06:01;2.60;;;2.15;;
7531;SDS011;3807;49.030;8.714;2022-08-14T03:08:28;3.87;;;2.10;;
7531;SDS011;3807;49.030;8.714;2022-08-14T03:11:01;4.85;;;2.47;;
7531;SDS011;3807;49.030;8.714;2022-08-14T03:13:31;2.90;;;2.35;;
7531;SDS011;3807;49.030;8.714;2022-08-14T03:15:59;2.30;;;1.92;;
7531;SDS011;3807;49.030;8.714;2022-08-14T03:18:26;2.42;;;2.22;;
7531;SDS011;3807;49.030;8.714;2022-08-14T03:20:52;2.78;;;2.17;;
7531;SDS011;3807;49.030;8.714;2022-08-14T03:23:18;6.32;;;2.17;;
7531;SDS011;3807;49.030;8.714;2022-08-14T03:25:44;3.22;;;2.33;;
7531;SDS011;3807;49.030;8.714;2022-08-14T03:28:10;2.28;;;2.08;;
7531;SDS011;3807;49.030;8.714;2022-08-14T03:30:37;2.60;;;2.40;;
7531;SDS011;3807;49.030;8.714;2022-08-14T03:33:03;3.47;;;2.12;;
7531;SDS011;3807;49.030;8.714;2022-08-14T03:35:29;3.33;;;2.30;;
7531;SDS011;3807;49.030;8.714;2022-08-14T03:38:08;2.97;;;2.25;;
7531;SDS011;3807;49.030;8.714;2022-08-14T03:40:36;4.53;;;2.20;;
7531;SDS011;3807;49.030;8.714;2022-08-14T03:43:05;2.70;;;2.28;;
7531;SDS011;3807;49.030;8.714;2022-08-14T03:45:36;2.60;;;2.25;;
7531;SDS011;3807;49.030;8.714;2022-08-14T03:48:13;5.22;;;2.78;;
7531;SDS011;3807;49.030;8.714;2022-08-14T03:50:47;3.72;;;2.10;;
7531;SDS011;3807;49.030;8.714;2022-08-14T03:53:16;3.87;;;2.40;;
7531;SDS011;3807;49.030;8.714;2022-08-14T03:55:44;4.37;;;2.33;;
7531;SDS011;3807;49.030;8.714;2022-08-14T03:58:11;3.83;;;2.22;;
7531;SDS011;3807;49.030;8.714;2022-08-14T04:00:38;5.93;;;2.28;;
7531;SDS011;3807;49.030;8.714;2022-08-14T04:03:05;3.00;;;2.50;;
7531;SDS011;3807;49.030;8.714;2022-08-14T04:05:32;4.70;;;2.33;;
7531;SDS011;3807;49.030;8.714;2022-08-14T04:07:58;3.33;;;2.15;;
7531;SDS011;3807;49.030;8.714;2022-08-14T04:10:24;2.28;;;2.08;;
7531;SDS011;3807;49.030;8.714;2022-08-14T04:12:51;2.92;;;2.40;;
7531;SDS011;3807;49.030;8.714;2022-08-14T04:15:16;7.97;;;2.42;;
7531;SDS011;3807;49.030;8.714;2022-08-14T04:17:44;3.05;;;2.47;;
7531;SDS011;3807;49.030;8.714;2022-08-14T04:20:09;3.03;;;2.53;;
7531;SDS011;3807;49.030;8.714;2022-08-14T04:22:36;6.62;;;2.87;;
7531;SDS011;3807;49.030;8.714;2022-08-14T04:25:03;4.90;;;2.10;;
7531;SDS011;3807;49.030;8.714;2022-08-14T04:27:28;2.60;;;2.40;;
7531;SDS011;3807;49.030;8.714;2022-08-14T04:29:54;5.50;;;2.72;;
7531;SDS011;3807;49.030;8.714;2022-08-14T04:32:21;3.92;;;2.37;;
7531;SDS011;3807;49.030;8.714;2022-08-14T04:34:50;5.37;;;2.78;;
7531;SDS011;3807;49.030;8.714;2022-08-14T04:37:18;4.65;;;2.30;;
7531;SDS011;3807;49.030;8.714;2022-08-14T04:40:04;5.35;;;2.30;;
7531;SDS011;3807;49.030;8.714;2022-08-14T04:42:49;2.67;;;2.30;;
7531;SDS011;3807;49.030;8.714;2022-08-14T04:45:33;4.85;;;2.40;;
7531;SDS011;3807;49.030;8.714;2022-08-14T04:48:07;3.75;;;2.20;;
7531;SDS011;3807;49.030;8.714;2022-08-14T04:50:37;5.30;;;2.40;;
7531;SDS011;3807;49.030;8.714;2022-08-14T04:53:04;6.82;;;2.50;;
7531;SDS011;3807;49.030;8.714;2022-08-14T04:55:29;5.05;;;2.80;;
7531;SDS011;3807;49.030;8.714;2022-08-14T04:57:55;5.15;;;2.33;;
7531;SDS011;3807;49.030;8.714;2022-08-14T05:00:21;5.53;;;2.80;;
7531;SDS011;3807;49.030;8.714;2022-08-14T05:02:47;2.58;;;2.37;;
7531;SDS011;3807;49.030;8.714;2022-08-14T05:05:13;4.37;;;2.65;;
7531;SDS011;3807;49.030;8.714;2022-08-14T05:07:38;5.70;;;2.58;;
7531;SDS011;3807;49.030;8.714;2022-08-14T05:10:05;6.20;;;2.60;;
7531;SDS011;3807;49.030;8.714;2022-08-14T05:12:30;3.92;;;2.70;;
7531;SDS011;3807;49.030;8.714;2022-08-14T05:14:56;2.67;;;2.47;;
7531;SDS011;3807;49.030;8.714;2022-08-14T05:17:22;3.55;;;2.60;;
7531;SDS011;3807;49.030;8.714;2022-08-14T05:19:49;4.78;;;2.47;;
7531;SDS011;3807;49.030;8.714;2022-08-14T05:22:15;4.20;;;2.80;;
7531;SDS011;3807;49.030;8.714;2022-08-14T05:24:40;4.75;;;2.55;;
7531;SDS011;3807;49.030;8.714;2022-08-14T05:27:06;3.55;;;2.78;;
7531;SDS011;3807;49.030;8.714;2022-08-14T05:29:31;3.33;;;2.78;;
7531;SDS011;3807;49.030;8.714;2022-08-14T05:31:56;4.30;;;2.30;;
7531;SDS011;3807;49.030;8.714;2022-08-14T05:34:22;3.33;;;2.90;;
7531;SDS011;3807;49.030;8.714;2022-08-14T05:36:48;3.67;;;2.80;;
7531;SDS011;3807;49.030;8.714;2022-08-14T05:39:13;3.50;;;3.00;;
7531;SDS011;3807;49.030;8.714;2022-08-14T05:41:39;3.30;;;2.62;;
7531;SDS011;3807;49.030;8.714;2022-08-14T05:44:05;7.22;;;2.60;;
7531;SDS011;3807;49.030;8.714;2022-08-14T05:46:30;4.47;;;2.65;;
7531;SDS011;3807;49.030;8.714;2022-08-14T05:48:56;2.83;;;2.53;;
7531;SDS011;3807;49.030;8.714;2022-08-14T05:51:23;5.18;;;2.65;;
7531;SDS011;3807;49.030;8.714;2022-08-14T05:53:49;3.00;;;2.40;;
7531;SDS011;3807;49.030;8.714;2022-08-14T05:56:14;4.60;;;2.92;;
7531;SDS011;3807;49.030;8.714;2022-08-14T05:58:40;5.62;;;2.80;;
7531;SDS011;3807;49.030;8.714;2022-08-14T06:01:06;3.65;;;2.62;;
7531;SDS011;3807;49.030;8.714;2022-08-14T06:03:33;5.57;;;2.85;;
7531;SDS011;3807;49.030;8.714;2022-08-14T06:05:58;4.15;;;2.87;;
7531;SDS011;3807;49.030;8.714;2022-08-14T06:08:25;4.53;;;2.92;;
7531;SDS011;3807;49.030;8.714;2022-08-14T06:10:54;4.18;;;2.90;;
7531;SDS011;3807;49.030;8.714;2022-08-14T06:13:21;6.03;;;2.97;;
7531;SDS011;3807;49.030;8.714;2022-08-14T06:15:47;3.73;;;2.80;;
7531;SDS011;3807;49.030;8.714;2022-08-14T06:18:15;3.28;;;2.80;;
7531;SDS011;3807;49.030;8.714;2022-08-14T06:20:41;4.13;;;3.10;;
7531;SDS011;3807;49.030;8.714;2022-08-14T06:23:07;4.35;;;2.53;;
7531;SDS011;3807;49.030;8.714;2022-08-14T06:25:32;4.43;;;2.83;;
7531;SDS011;3807;49.030;8.714;2022-08-14T06:27:58;3.50;;;3.10;;
7531;SDS011;3807;49.030;8.714;2022-08-14T06:30:24;4.17;;;2.83;;
7531;SDS011;3807;49.030;8.714;2022-08-14T06:32:52;3.67;;;3.00;;
7531;SDS011;3807;49.030;8.714;2022-08-14T06:35:17;3.80;;;2.97;;
7531;SDS011;3807;49.030;8.714;2022-08-14T06:37:45;3.83;;;3.20;;
7531;SDS011;3807;49.030;8.714;2022-08-14T06:40:11;3.57;;;3.27;;
7531;SDS011;3807;49.030;8.714;2022-08-14T06:42:40;4.63;;;3.13;;
7531;SDS011;3807;49.030;8.714;2022-08-14T06:45:06;3.17;;;2.87;;
7531;SDS011;3807;49.030;8.714;2022-08-14T06:47:33;7.23;;;3.03;;
7531;SDS011;3807;49.030;8.714;2022-08-14T06:50:03;5.17;;;3.27;;
7531;SDS011;3807;49.030;8.714;2022-08-14T06:52:31;7.73;;;3.50;;
7531;SDS011;3807;49.030;8.714;2022-08-14T06:54:56;6.00;;;3.50;;
7531;SDS011;3807;49.030;8.714;2022-08-14T06:57:22;3.50;;;3.20;;
7531;SDS011;3807;49.030;8.714;2022-08-14T06:59:48;3.23;;;2.60;;
7531;SDS011;3807;49.030;8.714;2022-08-14T07:02:13;3.43;;;2.97;;
7531;SDS011;3807;49.030;8.714;2022-08-14T07:04:57;3.57;;;3.00;;
7531;SDS011;3807;49.030;8.714;2022-08-14T07:07:41;3.43;;;3.13;;
7531;SDS011;3807;49.030;8.714;2022-08-14T07:10:07;3.47;;;2.77;;
7531;SDS011;3807;49.030;8.714;2022-08-14T07:12:33;4.40;;;2.80;;
7531;SDS011;3807;49.030;8.714;2022-08-14T07:15:00;3.17;;;2.70;;
7531;SDS011;3807;49.030;8.714;2022-08-14T07:17:25;3.40;;;2.80;;
7531;SDS011;3807;49.030;8.714;2022-08-14T07:19:51;2.87;;;2.40;;
7531;SDS011;3807;49.030;8.714;2022-08-14T07:22:17;3.17;;;2.50;;
7531;SDS011;3807;49.030;8.714;2022-08-14T07:24:42;2.47;;;2.27;;
7531;SDS011;3807;49.030;8.714;2022-08-14T07:27:08;2.80;;;2.43;;
7531;SDS011;3807;49.030;8.714;2022-08-14T07:29:34;4.90;;;2.70;;
7531;SDS011;3807;49.030;8.714;2022-08-14T07:31:59;2.57;;;2.37;;
7531;SDS011;3807;49.030;8.714;2022-08-14T07:34:24;7.17;;;2.57;;
7531;SDS011;3807;49.030;8.714;2022-08-14T07:36:50;4.90;;;2.73;;
7531;SDS011;3807;49.030;8.714;2022-08-14T07:39:16;3.20;;;2.70;;
7531;SDS011;3807;49.030;8.714;2022-08-14T07:41:41;3.37;;;3.07;;
7531;SDS011;3807;49.030;8.714;2022-08-14T07:44:08;5.70;;;2.30;;
7531;SDS011;3807;49.030;8.714;2022-08-14T07:46:35;4.67;;;2.87;;
7531;SDS011;3807;49.030;8.714;2022-08-14T07:49:01;6.60;;;2.20;;
7531;SDS011;3807;49.030;8.714;2022-08-14T07:51:27;4.80;;;2.73;;
7531;SDS011;3807;49.030;8.714;2022-08-14T07:53:52;2.53;;;2.33;;
7531;SDS011;3807;49.030;8.714;2022-08-14T07:56:18;2.30;;;2.10;;
7531;SDS011;3807;49.030;8.714;2022-08-14T07:58:43;3.97;;;2.03;;
7531;SDS011;3807;49.030;8.714;2022-08-14T08:01:09;2.40;;;2.20;;
7531;SDS011;3807;49.030;8.714;2022-08-14T08:03:35;2.70;;;2.30;;
7531;SDS011;3807;49.030;8.714;2022-08-14T08:06:03;3.47;;;2.30;;
7531;SDS011;3807;49.030;8.714;2022-08-14T08:08:29;3.80;;;2.10;;
7531;SDS011;3807;49.030;8.714;2022-08-14T08:10:55;4.97;;;2.43;;
7531;SDS011;3807;49.030;8.714;2022-08-14T08:13:21;2.30;;;2.10;;
7531;SDS011;3807;49.030;8.714;2022-08-14T08:15:48;5.67;;;2.30;;
7531;SDS011;3807;49.030;8.714;2022-08-14T08:18:21;4.27;;;2.10;;
7531;SDS011;3807;49.030;8.714;2022-08-14T08:20:51;3.33;;;2.10;;
7531;SDS011;3807;49.030;8.714;2022-08-14T08:23:19;4.90;;;2.20;;
7531;SDS011;3807;49.030;8.714;2022-08-14T08:25:47;2.60;;;1.80;;
7531;SDS011;3807;49.030;8.714;2022-08-14T08:28:18;6.03;;;2.30;;
7531;SDS011;3807;49.030;8.714;2022-08-14T08:33:14;4.35;;;1.80;;
7531;SDS011;3807;49.030;8.714;2022-08-14T08:35:40;3.40;;;2.08;;
7531;SDS011;3807;49.030;8.714;2022-08-14T08:38:11;2.55;;;1.98;;
7531;SDS011;3807;49.030;8.714;2022-08-14T08:40:41;8.60;;;2.30;;
7531;SDS011;3807;49.030;8.714;2022-08-14T08:43:08;2.27;;;2.07;;
7531;SDS011;3807;49.030;8.714;2022-08-14T08:48:24;4.53;;;2.70;;
7531;SDS011;3807;49.030;8.714;2022-08-14T08:50:55;2.45;;;2.25;;
7531;SDS011;3807;49.030;8.714;2022-08-14T08:53:22;2.42;;;1.95;;
7531;SDS011;3807;49.030;8.714;2022-08-14T08:55:53;2.78;;;2.45;;
7531;SDS011;3807;49.030;8.714;2022-08-14T08:58:19;2.78;;;2.30;;
7531;SDS011;3807;49.030;8.714;2022-08-14T09:00:46;3.00;;;2.45;;
7531;SDS011;3807;49.030;8.714;2022-08-14T09:03:14;3.55;;;2.35;;
7531;SDS011;3807;49.030;8.714;2022-08-14T09:08:17;2.12;;;1.92;;
7531;SDS011;3807;49.030;8.714;2022-08-14T09:10:45;1.83;;;1.70;;
7531;SDS011;3807;49.030;8.714;2022-08-14T09:13:11;3.67;;;2.03;;
7531;SDS011;3807;49.030;8.714;2022-08-14T09:15:39;3.33;;;1.70;;
7531;SDS011;3807;49.030;8.714;2022-08-14T09:18:10;2.25;;;1.90;;
7531;SDS011;3807;49.030;8.714;2022-08-14T09:20:37;2.58;;;1.70;;
7531;SDS011;3807;49.030;8.714;2022-08-14T09:23:05;2.08;;;1.80;;
7531;SDS011;3807;49.030;8.714;2022-08-14T09:25:31;1.83;;;1.55;;
7531;SDS011;3807;49.030;8.714;2022-08-14T09:27:57;1.50;;;1.40;;
7531;SDS011;3807;49.030;8.714;2022-08-14T09:30:22;2.20;;;1.98;;
7531;SDS011;3807;49.030;8.714;2022-08-14T09:33:02;1.70;;;1.60;;
7531;SDS011;3807;49.030;8.714;2022-08-14T09:38:32;3.78;;;2.42;;
7531;SDS011;3807;49.030;8.714;2022-08-14T09:41:29;5.05;;;1.52;;
7531;SDS011;3807;49.030;8.714;2022-08-14T09:46:32;2.20;;;2.00;;
7531;SDS011;3807;49.030;8.714;2022-08-14T09:49:07;2.30;;;2.10;;
7531;SDS011;3807;49.030;8.714;2022-08-14T09:51:34;2.58;;;2.10;;
7531;SDS011;3807;49.030;8.714;2022-08-14T09:54:05;2.55;;;1.98;;
7531;SDS011;3807;49.030;8.714;2022-08-14T09:56:48;2.60;;;2.37;;
7531;SDS011;3807;49.030;8.714;2022-08-14T09:59:16;2.60;;;2.40;;
7531;SDS011;3807;49.030;8.714;2022-08-14T10:01:46;2.92;;;2.30;;
7531;SDS011;3807;49.030;8.714;2022-08-14T10:04:30;3.60;;;2.10;;
7531;SDS011;3807;49.030;8.714;2022-08-14T10:06:56;2.42;;;2.20;;
7531;SDS011;3807;49.030;8.714;2022-08-14T10:09:22;5.50;;;2.05;;
7531;SDS011;3807;49.030;8.714;2022-08-14T10:11:55;2.08;;;1.87;;
7531;SDS011;3807;49.030;8.714;2022-08-14T10:14:23;2.28;;;2.08;;
7531;SDS011;3807;49.030;8.714;2022-08-14T10:16:53;5.57;;;2.50;;
7531;SDS011;3807;49.030;8.714;2022-08-14T10:19:23;3.70;;;2.05;;
7531;SDS011;3807;49.030;8.714;2022-08-14T10:22:10;5.93;;;2.20;;
7531;SDS011;3807;49.030;8.714;2022-08-14T10:24:40;2.55;;;2.17;;
7531;SDS011;3807;49.030;8.714;2022-08-14T10:27:14;4.50;;;2.40;;
7531;SDS011;3807;49.030;8.714;2022-08-14T10:29:42;2.50;;;2.30;;
7531;SDS011;3807;49.030;8.714;2022-08-14T10:32:12;3.17;;;2.35;;
7531;SDS011;3807;49.030;8.714;2022-08-14T10:34:38;3.55;;;2.28;;
7531;SDS011;3807;49.030;8.714;2022-08-14T10:39:32;3.05;;;2.30;;
7531;SDS011;3807;49.030;8.714;2022-08-14T10:42:06;4.05;;;2.25;;
7531;SDS011;3807;49.030;8.714;2022-08-14T10:44:36;4.28;;;2.40;;
7531;SDS011;3807;49.030;8.714;2022-08-14T10:47:03;2.30;;;2.10;;
7531;SDS011;3807;49.030;8.714;2022-08-14T10:49:38;2.60;;;2.25;;
7531;SDS011;3807;49.030;8.714;2022-08-14T10:52:18;2.55;;;2.22;;
7531;SDS011;3807;49.030;8.714;2022-08-14T10:54:45;4.12;;;2.50;;
7531;SDS011;3807;49.030;8.714;2022-08-14T10:57:16;2.58;;;2.35;;
7531;SDS011;3807;49.030;8.714;2022-08-14T10:59:56;2.72;;;2.37;;
7531;SDS011;3807;49.030;8.714;2022-08-14T11:07:30;2.87;;;2.62;;
7531;SDS011;3807;49.030;8.714;2022-08-14T11:10:03;2.75;;;2.30;;
7531;SDS011;3807;49.030;8.714;2022-08-14T11:12:45;3.80;;;2.10;;
7531;SDS011;3807;49.030;8.714;2022-08-14T11:15:13;10.02;;;2.67;;
7531;SDS011;3807;49.030;8.714;2022-08-14T11:17:41;4.30;;;2.22;;
7531;SDS011;3807;49.030;8.714;2022-08-14T11:20:08;6.05;;;2.47;;
7531;SDS011;3807;49.030;8.714;2022-08-14T11:22:34;2.53;;;2.33;;
7531;SDS011;3807;49.030;8.714;2022-08-14T11:25:05;4.15;;;2.33;;
7531;SDS011;3807;49.030;8.714;2022-08-14T11:27:32;2.80;;;2.45;;
7531;SDS011;3807;49.030;8.714;2022-08-14T11:29:59;2.42;;;2.08;;
7531;SDS011;3807;49.030;8.714;2022-08-14T11:32:27;2.50;;;2.30;;
7531;SDS011;3807;49.030;8.714;2022-08-14T11:34:55;2.40;;;2.20;;
7531;SDS011;3807;49.030;8.714;2022-08-14T11:37:22;2.78;;;2.17;;
7531;SDS011;3807;49.030;8.714;2022-08-14T11:39:48;4.80;;;2.40;;
7531;SDS011;3807;49.030;8.714;2022-08-14T11:42:23;3.83;;;2.42;;
7531;SDS011;3807;49.030;8.714;2022-08-14T11:44:52;4.22;;;2.55;;
7531;SDS011;3807;49.030;8.714;2022-08-14T11:47:20;3.62;;;2.45;;
7531;SDS011;3807;49.030;8.714;2022-08-14T11:49:45;2.40;;;2.17;;
7531;SDS011;3807;49.030;8.714;2022-08-14T11:52:15;7.55;;;2.40;;
7531;SDS011;3807;49.030;8.714;2022-08-14T11:54:43;2.53;;;2.10;;
7531;SDS011;3807;49.030;8.714;2022-08-14T11:57:17;2.42;;;2.22;;
7531;SDS011;3807;49.030;8.714;2022-08-14T11:59:44;3.17;;;2.50;;
7531;SDS011;3807;49.030;8.714;2022-08-14T12:02:13;2.67;;;2.20;;
7531;SDS011;3807;49.030;8.714;2022-08-14T12:04:48;3.65;;;2.37;;
7531;SDS011;3807;49.030;8.714;2022-08-14T12:07:14;4.05;;;2.40;;
7531;SDS011;3807;49.030;8.714;2022-08-14T12:09:42;2.58;;;2.28;;
7531;SDS011;3807;49.030;8.714;2022-08-14T12:12:14;2.58;;;2.37;;
7531;SDS011;3807;49.030;8.714;2022-08-14T12:14:50;4.05;;;2.62;;
7531;SDS011;3807;49.030;8.714;2022-08-14T12:17:29;3.55;;;2.65;;
7531;SDS011;3807;49.030;8.714;2022-08-14T12:19:58;2.42;;;2.22;;
7531;SDS011;3807;49.030;8.714;2022-08-14T12:22:39;2.80;;;2.50;;
7531;SDS011;3807;49.030;8.714;2022-08-14T12:25:08;4.15;;;2.40;;
7531;SDS011;3807;49.030;8.714;2022-08-14T12:27:46;2.35;;;1.95;;
7531;SDS011;3807;49.030;8.714;2022-08-14T12:30:29;2.12;;;1.92;;
7531;SDS011;3807;49.030;8.714;2022-08-14T12:32:56;2.80;;;2.12;;
7531;SDS011;3807;49.030;8.714;2022-08-14T12:35:22;2.60;;;2.40;;
7531;SDS011;3807;49.030;8.714;2022-08-14T12:37:48;2.40;;;2.20;;
7531;SDS011;3807;49.030;8.714;2022-08-14T12:40:15;2.30;;;2.10;;
7531;SDS011;3807;49.030;8.714;2022-08-14T12:42:42;2.75;;;2.20;;
7531;SDS011;3807;49.030;8.714;2022-08-14T12:45:10;3.33;;;2.20;;
7531;SDS011;3807;49.030;8.714;2022-08-14T12:47:40;2.53;;;1.92;;
7531;SDS011;3807;49.030;8.714;2022-08-14T12:50:06;2.72;;;1.98;;
7531;SDS011;3807;49.030;8.714;2022-08-14T12:52:37;3.42;;;2.17;;
7531;SDS011;3807;49.030;8.714;2022-08-14T12:55:05;2.67;;;2.03;;
7531;SDS011;3807;49.030;8.714;2022-08-14T13:00:04;3.12;;;1.90;;
7531;SDS011;3807;49.030;8.714;2022-08-14T13:02:34;2.28;;;1.98;;
7531;SDS011;3807;49.030;8.714;2022-08-14T13:05:02;2.75;;;2.12;;
7531;SDS011;3807;49.030;8.714;2022-08-14T13:07:28;1.80;;;1.70;;
7531;SDS011;3807;49.030;8.714;2022-08-14T13:09:54;5.47;;;1.73;;
7531;SDS011;3807;49.030;8.714;2022-08-14T13:12:20;3.60;;;1.85;;
7531;SDS011;3807;49.030;8.714;2022-08-14T13:14:57;2.05;;;1.52;;
7531;SDS011;3807;49.030;8.714;2022-08-14T13:17:23;2.10;;;1.90;;
7531;SDS011;3807;49.030;8.714;2022-08-14T13:19:51;2.37;;;1.75;;
7531;SDS011;3807;49.030;8.714;2022-08-14T13:22:23;4.05;;;1.77;;
7531;SDS011;3807;49.030;8.714;2022-08-14T13:24:52;1.70;;;1.60;;
7531;SDS011;3807;49.030;8.714;2022-08-14T13:27:23;3.15;;;1.60;;
7531;SDS011;3807;49.030;8.714;2022-08-14T13:29:51;2.17;;;2.00;;
7531;SDS011;3807;49.030;8.714;2022-08-14T13:32:23;2.22;;;1.70;;
7531;SDS011;3807;49.030;8.714;2022-08-14T13:34:49;1.67;;;1.58;;
7531;SDS011;3807;49.030;8.714;2022-08-14T13:37:16;2.62;;;2.00;;
7531;SDS011;3807;49.030;8.714;2022-08-14T13:39:49;1.77;;;1.67;;
7531;SDS011;3807;49.030;8.714;2022-08-14T13:42:17;1.80;;;1.65;;
7531;SDS011;3807;49.030;8.714;2022-08-14T13:44:46;2.35;;;2.05;;
7531;SDS011;3807;49.030;8.714;2022-08-14T13:47:14;2.90;;;2.00;;
7531;SDS011;3807;49.030;8.714;2022-08-14T13:49:40;3.55;;;1.67;;
7531;SDS011;3807;49.030;8.714;2022-08-14T13:52:06;1.90;;;1.75;;
7531;SDS011;3807;49.030;8.714;2022-08-14T13:54:35;2.20;;;1.73;;
7531;SDS011;3807;49.030;8.714;2022-08-14T13:57:04;3.17;;;1.80;;
7531;SDS011;3807;49.030;8.714;2022-08-14T13:59:33;2.62;;;2.05;;
7531;SDS011;3807;49.030;8.714;2022-08-14T14:02:06;1.95;;;1.67;;
7531;SDS011;3807;49.030;8.714;2022-08-14T14:04:32;1.60;;;1.48;;
7531;SDS011;3807;49.030;8.714;2022-08-14T14:07:09;2.25;;;1.83;;
7531;SDS011;3807;49.030;8.714;2022-08-14T14:09:37;4.40;;;1.80;;
7531;SDS011;3807;49.030;8.714;2022-08-14T14:12:09;1.80;;;1.70;;
7531;SDS011;3807;49.030;8.714;2022-08-14T14:14:35;1.48;;;1.37;;
7531;SDS011;3807;49.030;8.714;2022-08-14T14:17:08;1.83;;;1.70;;
7531;SDS011;3807;49.030;8.714;2022-08-14T14:19:41;2.83;;;2.10;;
7531;SDS011;3807;49.030;8.714;2022-08-14T14:22:11;3.20;;;1.80;;
7531;SDS011;3807;49.030;8.714;2022-08-14T14:24:42;2.53;;;1.87;;
7531;SDS011;3807;49.030;8.714;2022-08-14T14:27:09;1.90;;;1.65;;
7531;SDS011;3807;49.030;8.714;2022-08-14T14:29:36;1.80;;;1.70;;
7531;SDS011;3807;49.030;8.714;2022-08-14T14:32:04;2.20;;;1.92;;
7531;SDS011;3807;49.030;8.714;2022-08-14T14:34:30;2.22;;;2.03;;
7531;SDS011;3807;49.030;8.714;2022-08-14T14:37:01;3.70;;;3.00;;
7531;SDS011;3807;49.030;8.714;2022-08-14T14:39:32;2.70;;;2.50;;
7531;SDS011;3807;49.030;8.714;2022-08-14T14:42:01;2.03;;;1.77;;
7531;SDS011;3807;49.030;8.714;2022-08-14T14:44:31;2.65;;;1.90;;
7531;SDS011;3807;49.030;8.714;2022-08-14T14:46:58;2.92;;;2.20;;
7531;SDS011;3807;49.030;8.714;2022-08-14T14:49:25;1.98;;;1.70;;
7531;SDS011;3807;49.030;8.714;2022-08-14T14:51:53;2.03;;;1.55;;
7531;SDS011;3807;49.030;8.714;2022-08-14T14:54:20;1.60;;;1.50;;
7531;SDS011;3807;49.030;8.714;2022-08-14T14:56:47;2.12;;;1.45;;
7531;SDS011;3807;49.030;8.714;2022-08-14T14:59:12;2.00;;;1.80;;
7531;SDS011;3807;49.030;8.714;2022-08-14T15:01:39;1.92;;;1.75;;
7531;SDS011;3807;49.030;8.714;2022-08-14T15:04:07;1.83;;;1.73;;
7531;SDS011;3807;49.030;8.714;2022-08-14T15:06:33;4.20;;;1.70;;
7531;SDS011;3807;49.030;8.714;2022-08-14T15:08:59;3.15;;;1.60;;
7531;SDS011;3807;49.030;8.714;2022-08-14T15:11:27;2.17;;;2.08;;
7531;SDS011;3807;49.030;8.714;2022-08-14T15:13:53;2.47;;;1.85;;
7531;SDS011;3807;49.030;8.714;2022-08-14T15:16:18;2.45;;;1.85;;
7531;SDS011;3807;49.030;8.714;2022-08-14T15:18:46;1.67;;;1.50;;
7531;SDS011;3807;49.030;8.714;2022-08-14T15:21:11;3.87;;;2.42;;
7531;SDS011;3807;49.030;8.714;2022-08-14T15:23:38;1.73;;;1.62;;
7531;SDS011;3807;49.030;8.714;2022-08-14T15:26:05;2.70;;;1.80;;
7531;SDS011;3807;49.030;8.714;2022-08-14T15:28:30;1.80;;;1.70;;
7531;SDS011;3807;49.030;8.714;2022-08-14T15:31:00;2.87;;;1.37;;
7531;SDS011;3807;49.030;8.714;2022-08-14T15:33:27;1.75;;;1.65;;
7531;SDS011;3807;49.030;8.714;2022-08-14T15:36:11;1.98;;;1.77;;
7531;SDS011;3807;49.030;8.714;2022-08-14T15:38:36;3.85;;;1.95;;
7531;SDS011;3807;49.030;8.714;2022-08-14T15:41:03;1.73;;;1.62;;
7531;SDS011;3807;49.030;8.714;2022-08-14T15:43:29;4.00;;;1.80;;
7531;SDS011;3807;49.030;8.714;2022-08-14T15:45:57;1.95;;;1.65;;
7531;SDS011;3807;49.030;8.714;2022-08-14T15:48:24;1.87;;;1.70;;